Parana, Brazil
Current Conditions -  °F | °C
As of 1:00 AM on Wednesday 22 Oct 2014 (Local Time) from SBJU Reporting Station
Few Clouds Few Clouds  
Wind Chill: 86°   Ceiling: Unl
Heat Index: 92°   Visibility: 6mi
Dew Point: 72°   Wind: 9mph
Humidity: 62%   Direction: 50°NE
Pressure: 29.97"   Gusts: NA
Location:  6.49°S, 38.31°W
Report Text: SBJU 220400Z 05008KT 9999 FEW020 30/22 Q1015
Loading
Personal Weather Stations






























Interactive Weather Map
Tropical Storm Tracking
New forecast layout! Learn more

10-Day Weather Forecast

Advertisements
Track Severe Weather on mobile